createdAt,value
2023-05-22T00:02:23.236Z,4.10
2023-05-22T00:07:30.047Z,3.70
2023-05-22T00:12:33.793Z,4.00
2023-05-22T00:17:38.063Z,4.00
2023-05-22T00:22:42.579Z,3.90
2023-05-22T00:27:47.895Z,3.80
2023-05-22T00:32:51.848Z,3.60
2023-05-22T00:37:55.810Z,3.60
2023-05-22T00:42:59.517Z,3.60
2023-05-22T00:48:04.428Z,3.70
2023-05-22T00:53:08.647Z,3.80
2023-05-22T00:58:16.444Z,3.40
2023-05-22T01:03:27.184Z,3.50
2023-05-22T01:08:31.329Z,3.40
2023-05-22T01:13:52.234Z,3.40
2023-05-22T01:19:31.560Z,3.60
2023-05-22T01:24:44.433Z,3.70
2023-05-22T01:30:11.584Z,3.10
2023-05-22T01:35:19.212Z,4.40
2023-05-22T01:40:23.551Z,3.40
2023-05-22T01:45:27.379Z,3.50
2023-05-22T01:50:31.214Z,3.30
2023-05-22T01:56:02.014Z,3.40
2023-05-22T02:01:09.229Z,3.60
2023-05-22T02:06:14.516Z,3.40
2023-05-22T02:11:20.238Z,3.80
2023-05-22T02:16:26.345Z,3.40
2023-05-22T02:21:29.989Z,3.50
2023-05-22T02:26:35.969Z,3.60
2023-05-22T02:31:39.868Z,3.50
2023-05-22T02:36:44.286Z,3.20
2023-05-22T02:41:48.588Z,3.10
2023-05-22T02:46:52.538Z,3.30
2023-05-22T02:51:56.288Z,3.80
2023-05-22T02:57:00.336Z,3.30
2023-05-22T03:02:06.109Z,3.10
2023-05-22T03:07:11.054Z,3.30
2023-05-22T03:12:15.154Z,3.70
2023-05-22T03:17:18.821Z,3.50
2023-05-22T03:22:23.562Z,3.80
2023-05-22T03:27:27.816Z,3.80
2023-05-22T03:32:31.885Z,3.70
2023-05-22T03:37:36.681Z,3.80
2023-05-22T03:42:40.617Z,3.60
2023-05-22T03:47:44.360Z,3.50
2023-05-22T03:52:49.831Z,3.60
2023-05-22T03:57:53.464Z,3.40
2023-05-22T04:02:59.156Z,4.10
2023-05-22T04:08:03.567Z,3.60
2023-05-22T04:13:07.319Z,3.70
2023-05-22T04:18:12.597Z,3.50
2023-05-22T04:23:16.400Z,4.00
2023-05-22T04:28:23.467Z,3.50
2023-05-22T04:33:33.355Z,3.50
2023-05-22T04:38:37.646Z,4.10
2023-05-22T04:43:41.327Z,3.70
2023-05-22T04:48:45.157Z,3.50
2023-05-22T04:53:50.154Z,4.20
2023-05-22T04:58:54.269Z,4.00
2023-05-22T05:03:58.162Z,3.00
2023-05-22T05:09:02.516Z,3.60
2023-05-22T05:14:06.344Z,3.40
2023-05-22T05:19:10.146Z,3.80
2023-05-22T05:24:13.816Z,4.00
2023-05-22T05:29:20.705Z,3.70
2023-05-22T05:34:45.951Z,3.50
2023-05-22T05:39:59.392Z,3.60
2023-05-22T05:45:06.573Z,3.80
2023-05-22T05:50:11.407Z,3.80
2023-05-22T05:55:16.178Z,3.20
2023-05-22T06:00:20.252Z,3.70
2023-05-22T06:05:30.354Z,3.90
2023-05-22T06:10:44.197Z,3.60
2023-05-22T06:15:54.892Z,3.50
2023-05-22T06:20:59.391Z,3.30
2023-05-22T06:26:03.671Z,3.50
2023-05-22T06:31:10.194Z,3.60
2023-05-22T06:36:16.609Z,3.70
2023-05-22T06:41:24.746Z,3.10
2023-05-22T06:46:33.107Z,3.40
2023-05-22T06:51:40.709Z,3.50
2023-05-22T06:56:49.237Z,3.50
2023-05-22T07:01:55.498Z,3.70
2023-05-22T07:07:09.564Z,3.10
2023-05-22T07:12:14.049Z,3.50
2023-05-22T07:17:19.084Z,3.30
2023-05-22T07:22:25.399Z,2.90
2023-05-22T07:27:29.358Z,3.40
2023-05-22T07:32:33.843Z,3.30
2023-05-22T07:37:39.083Z,3.30
2023-05-22T07:42:42.959Z,3.40
2023-05-22T07:47:48.218Z,3.30
2023-05-22T07:52:52.112Z,3.30
2023-05-22T07:57:56.541Z,3.50
2023-05-22T08:03:05.655Z,3.00
2023-05-22T08:08:10.695Z,3.10
2023-05-22T08:13:17.159Z,3.20
2023-05-22T08:18:22.800Z,3.20
2023-05-22T08:23:29.562Z,3.30
2023-05-22T08:28:33.342Z,3.00
2023-05-22T08:33:38.660Z,2.90
2023-05-22T08:38:42.432Z,2.80
2023-05-22T08:43:47.035Z,2.80
2023-05-22T08:48:52.403Z,2.60
2023-05-22T08:53:59.695Z,2.50
2023-05-22T08:59:04.604Z,2.80
2023-05-22T09:04:08.518Z,2.70
2023-05-22T09:09:12.840Z,2.60
2023-05-22T09:14:17.224Z,2.60
2023-05-22T09:19:24.415Z,2.40
2023-05-22T09:24:29.086Z,2.40
2023-05-22T09:29:54.510Z,2.80
2023-05-22T09:35:05.324Z,2.80
2023-05-22T09:40:14.589Z,3.00
2023-05-22T09:45:20.664Z,3.80
2023-05-22T09:50:25.288Z,2.60
2023-05-22T09:55:32.732Z,2.10
2023-05-22T10:00:37.119Z,2.00
2023-05-22T10:05:44.045Z,2.80
2023-05-22T10:10:52.369Z,2.30
2023-05-22T10:15:56.975Z,2.40
2023-05-22T10:21:01.368Z,2.10
2023-05-22T10:26:09.356Z,2.70
2023-05-22T10:31:58.314Z,2.60
2023-05-22T10:37:38.938Z,2.50
2023-05-22T10:42:56.616Z,2.20
2023-05-22T10:48:08.967Z,2.50
2023-05-22T10:53:41.462Z,2.60
2023-05-22T10:58:59.543Z,2.30
2023-05-22T11:04:26.072Z,2.70
2023-05-22T11:09:33.906Z,2.60
2023-05-22T11:14:37.848Z,2.40
2023-05-22T11:19:42.415Z,2.80
2023-05-22T11:24:49.360Z,2.50
2023-05-22T11:29:53.261Z,2.80
2023-05-22T11:34:58.113Z,2.40
2023-05-22T11:40:06.216Z,2.40
2023-05-22T11:45:11.974Z,2.80
2023-05-22T11:50:22.751Z,2.10
2023-05-22T11:55:34.084Z,2.60
2023-05-22T12:00:38.699Z,2.60
2023-05-22T12:05:46.607Z,2.60
2023-05-22T12:10:51.116Z,2.60
2023-05-22T12:15:57.813Z,2.80
2023-05-22T12:21:10.752Z,2.30
2023-05-22T12:26:19.950Z,2.90
2023-05-22T12:31:23.667Z,2.60
2023-05-22T12:36:39.647Z,2.70
2023-05-22T12:41:44.195Z,2.50
2023-05-22T12:46:48.227Z,2.70
2023-05-22T12:51:53.054Z,2.80
2023-05-22T12:56:56.901Z,2.40
2023-05-22T13:02:04.467Z,2.60
2023-05-22T13:07:08.186Z,3.00
2023-05-22T13:12:11.906Z,2.60
2023-05-22T13:17:15.712Z,2.60
2023-05-22T13:22:20.654Z,2.60
2023-05-22T13:27:24.948Z,2.70
2023-05-22T13:32:28.798Z,2.50
2023-05-22T13:37:32.714Z,2.80
2023-05-22T13:42:37.961Z,2.60
2023-05-22T13:47:41.694Z,2.30
2023-05-22T13:52:45.363Z,2.70
2023-05-22T13:57:50.238Z,2.80
2023-05-22T14:02:55.288Z,3.10
2023-05-22T14:08:00.835Z,2.60
2023-05-22T14:13:04.876Z,2.90
2023-05-22T14:18:08.739Z,2.60
2023-05-22T14:23:13.521Z,2.90
2023-05-22T14:28:19.413Z,2.20
2023-05-22T14:33:23.344Z,2.80
2023-05-22T14:38:27.038Z,2.70
2023-05-22T14:43:32.317Z,2.40
2023-05-22T14:48:36.496Z,2.90
2023-05-22T14:53:42.029Z,2.90
2023-05-22T14:58:46.252Z,2.60
2023-05-22T15:03:50.272Z,2.80
2023-05-22T15:08:55.777Z,3.00
2023-05-22T15:14:00.084Z,2.90
2023-05-22T15:19:04.935Z,3.60
2023-05-22T15:24:09.348Z,3.40
2023-05-22T15:29:13.037Z,2.80
2023-05-22T15:34:17.506Z,3.40
2023-05-22T15:39:21.317Z,2.90
2023-05-22T15:44:24.888Z,2.50
2023-05-22T15:49:31.400Z,2.90
2023-05-22T15:54:36.584Z,2.90
2023-05-22T15:59:40.402Z,2.70
2023-05-22T16:04:50.933Z,3.80
2023-05-22T16:09:57.846Z,3.00
2023-05-22T16:15:02.796Z,2.60
2023-05-22T16:20:09.700Z,3.00
2023-05-22T16:25:15.237Z,2.70
2023-05-22T16:30:21.983Z,2.80
2023-05-22T16:35:28.317Z,0.60
2023-05-22T16:40:38.608Z,2.70
2023-05-22T16:45:46.910Z,2.60
2023-05-22T16:50:50.393Z,2.80
2023-05-22T16:55:54.405Z,2.90
2023-05-22T17:00:58.427Z,3.40
2023-05-22T17:06:03.421Z,3.10
2023-05-22T17:11:07.133Z,2.70
2023-05-22T17:16:10.849Z,3.00
2023-05-22T17:21:14.713Z,3.30
2023-05-22T17:26:18.541Z,3.20
2023-05-22T17:31:23.207Z,3.20
2023-05-22T17:36:27.176Z,3.10
2023-05-22T17:41:31.414Z,3.10
2023-05-22T17:46:35.529Z,2.90
2023-05-22T17:51:39.894Z,3.20
2023-05-22T17:56:45.176Z,3.10
2023-05-22T18:01:49.047Z,3.10
2023-05-22T18:06:53.967Z,2.90
2023-05-22T18:11:59.625Z,3.20
2023-05-22T18:17:04.843Z,3.40
2023-05-22T18:22:08.603Z,3.00
2023-05-22T18:27:12.295Z,3.10
2023-05-22T18:32:15.962Z,3.40
2023-05-22T18:37:19.977Z,3.30
2023-05-22T18:42:24.069Z,3.50
2023-05-22T18:47:28.357Z,4.30
2023-05-22T18:52:34.082Z,4.70
2023-05-22T18:57:38.504Z,4.80
2023-05-22T19:02:43.255Z,4.50
2023-05-22T19:07:49.808Z,4.80
2023-05-22T19:12:55.956Z,4.30
2023-05-22T19:18:02.293Z,3.80
2023-05-22T19:23:07.204Z,3.90
2023-05-22T19:28:11.720Z,4.40
2023-05-22T19:33:18.147Z,3.60
2023-05-22T19:38:22.016Z,4.30
2023-05-22T19:43:26.165Z,4.40
2023-05-22T19:48:32.344Z,4.60
2023-05-22T19:53:36.810Z,4.00
2023-05-22T19:58:40.498Z,4.30
2023-05-22T20:03:46.794Z,4.70
2023-05-22T20:08:52.450Z,4.20
2023-05-22T20:13:56.661Z,5.10
2023-05-22T20:19:00.421Z,5.00
2023-05-22T20:24:06.519Z,5.20
2023-05-22T20:29:10.360Z,5.90
2023-05-22T20:34:14.249Z,6.70
2023-05-22T20:39:20.664Z,6.40
2023-05-22T20:44:24.862Z,7.60
2023-05-22T20:49:31.171Z,7.20
2023-05-22T20:54:36.794Z,5.80
2023-05-22T20:59:41.236Z,7.20
2023-05-22T21:04:44.856Z,7.00
2023-05-22T21:09:48.584Z,5.40
2023-05-22T21:14:52.240Z,5.00
2023-05-22T21:19:56.198Z,5.30
2023-05-22T21:24:59.960Z,4.60
2023-05-22T21:30:04.030Z,4.60
2023-05-22T21:35:09.236Z,5.30
2023-05-22T21:40:26.942Z,4.90
2023-05-22T21:45:31.586Z,4.90
2023-05-22T21:50:35.375Z,7.30
2023-05-22T21:55:39.086Z,7.10
2023-05-22T22:00:43.154Z,6.30
2023-05-22T22:05:47.559Z,6.00
2023-05-22T22:10:51.323Z,6.20
2023-05-22T22:15:55.298Z,6.00
2023-05-22T22:21:02.615Z,5.50
2023-05-22T22:26:06.559Z,5.50
2023-05-22T22:31:10.287Z,6.10
2023-05-22T22:36:13.913Z,5.60
2023-05-22T22:41:17.524Z,5.30
2023-05-22T22:46:23.123Z,5.70
2023-05-22T22:51:32.194Z,5.20
2023-05-22T22:56:36.273Z,5.00
2023-05-22T23:01:40.224Z,5.30
2023-05-22T23:06:46.458Z,4.80
2023-05-22T23:11:50.171Z,5.80
2023-05-22T23:16:54.164Z,5.10
2023-05-22T23:21:57.795Z,5.00
2023-05-22T23:27:01.738Z,5.10
2023-05-22T23:32:05.498Z,6.40
2023-05-22T23:37:09.534Z,5.80
2023-05-22T23:42:13.266Z,5.60
2023-05-22T23:47:18.393Z,5.30
2023-05-22T23:52:22.602Z,5.80
2023-05-22T23:57:26.469Z,6.20
